Terminal Aerodrome Forecast
Issued by NWS

Current Version | Previous Version | Text Only | Print | Product List | Glossary On
Versions: 1 2 3 4 5 6 7 8 9 10 11 12 13 14
000
FTUS42 KJAX 201741
TAFCRG
TAF
KCRG 201741Z 2018/2118 10007KT P6SM BKN250
     FM210300 VRB02KT P6SM SCT080 BKN250
     FM211400 05006KT P6SM SCT030 SCT080 BKN250=

USA.gov is the U.S. government's official web portal to all federal, state and local government web resources and services.